sensor_id;sensor_type;location;lat;lon;timestamp;temperature;humidity
4406;DHT22;2216;53.806;11.598;2023-03-07T00:00:36;2.00;74.00
4406;DHT22;2216;53.806;11.598;2023-03-07T00:03:03;2.10;74.10
4406;DHT22;2216;53.806;11.598;2023-03-07T00:05:29;2.00;74.00
4406;DHT22;2216;53.806;11.598;2023-03-07T00:07:56;2.10;74.10
4406;DHT22;2216;53.806;11.598;2023-03-07T00:10:23;2.10;74.10
4406;DHT22;2216;53.806;11.598;2023-03-07T00:12:49;2.20;74.10
4406;DHT22;2216;53.806;11.598;2023-03-07T00:15:15;2.20;74.10
4406;DHT22;2216;53.806;11.598;2023-03-07T00:17:42;2.10;74.10
4406;DHT22;2216;53.806;11.598;2023-03-07T00:20:08;2.20;74.10
4406;DHT22;2216;53.806;11.598;2023-03-07T00:22:42;2.10;74.10
4406;DHT22;2216;53.806;11.598;2023-03-07T00:25:09;2.10;74.10
4406;DHT22;2216;53.806;11.598;2023-03-07T00:27:35;2.20;74.10
4406;DHT22;2216;53.806;11.598;2023-03-07T00:30:02;2.20;74.20
4406;DHT22;2216;53.806;11.598;2023-03-07T00:32:29;2.20;74.10
4406;DHT22;2216;53.806;11.598;2023-03-07T00:34:55;2.30;74.20
4406;DHT22;2216;53.806;11.598;2023-03-07T00:37:22;2.20;74.20
4406;DHT22;2216;53.806;11.598;2023-03-07T00:39:48;2.20;74.10
4406;DHT22;2216;53.806;11.598;2023-03-07T00:42:14;2.30;74.20
4406;DHT22;2216;53.806;11.598;2023-03-07T00:44:40;2.20;74.10
4406;DHT22;2216;53.806;11.598;2023-03-07T00:47:05;2.30;74.10
4406;DHT22;2216;53.806;11.598;2023-03-07T00:49:31;2.30;74.20
4406;DHT22;2216;53.806;11.598;2023-03-07T00:51:57;2.30;74.20
4406;DHT22;2216;53.806;11.598;2023-03-07T00:54:23;2.30;74.20
4406;DHT22;2216;53.806;11.598;2023-03-07T00:56:48;2.30;74.30
4406;DHT22;2216;53.806;11.598;2023-03-07T00:59:14;2.30;74.50
4406;DHT22;2216;53.806;11.598;2023-03-07T01:01:40;2.30;74.50
4406;DHT22;2216;53.806;11.598;2023-03-07T01:04:06;2.30;74.60
4406;DHT22;2216;53.806;11.598;2023-03-07T01:06:33;2.30;74.80
4406;DHT22;2216;53.806;11.598;2023-03-07T01:09:04;2.40;74.80
4406;DHT22;2216;53.806;11.598;2023-03-07T01:11:35;2.20;74.80
4406;DHT22;2216;53.806;11.598;2023-03-07T01:14:03;2.20;74.90
4406;DHT22;2216;53.806;11.598;2023-03-07T01:16:33;2.20;74.80
4406;DHT22;2216;53.806;11.598;2023-03-07T01:19:02;2.30;74.80
4406;DHT22;2216;53.806;11.598;2023-03-07T01:21:33;2.10;75.00
4406;DHT22;2216;53.806;11.598;2023-03-07T01:24:00;2.10;74.80
4406;DHT22;2216;53.806;11.598;2023-03-07T01:26:28;2.20;75.30
4406;DHT22;2216;53.806;11.598;2023-03-07T01:28:57;2.00;75.40
4406;DHT22;2216;53.806;11.598;2023-03-07T01:31:25;2.00;75.30
4406;DHT22;2216;53.806;11.598;2023-03-07T01:33:52;1.90;75.50
4406;DHT22;2216;53.806;11.598;2023-03-07T01:36:25;1.90;75.40
4406;DHT22;2216;53.806;11.598;2023-03-07T01:39:01;1.90;75.30
4406;DHT22;2216;53.806;11.598;2023-03-07T01:41:31;1.90;75.40
4406;DHT22;2216;53.806;11.598;2023-03-07T01:44:02;1.80;75.10
4406;DHT22;2216;53.806;11.598;2023-03-07T01:46:42;1.80;75.70
4406;DHT22;2216;53.806;11.598;2023-03-07T01:49:18;1.80;76.40
4406;DHT22;2216;53.806;11.598;2023-03-07T01:51:51;1.80;75.60
4406;DHT22;2216;53.806;11.598;2023-03-07T01:54:21;1.80;75.50
4406;DHT22;2216;53.806;11.598;2023-03-07T01:56:48;1.70;75.90
4406;DHT22;2216;53.806;11.598;2023-03-07T01:59:20;1.70;75.60
4406;DHT22;2216;53.806;11.598;2023-03-07T02:01:50;1.70;75.70
4406;DHT22;2216;53.806;11.598;2023-03-07T02:04:27;1.70;75.80
4406;DHT22;2216;53.806;11.598;2023-03-07T02:06:59;1.70;75.90
4406;DHT22;2216;53.806;11.598;2023-03-07T02:09:26;1.70;75.80
4406;DHT22;2216;53.806;11.598;2023-03-07T02:11:53;1.70;75.70
4406;DHT22;2216;53.806;11.598;2023-03-07T02:14:22;1.70;75.90
4406;DHT22;2216;53.806;11.598;2023-03-07T02:16:47;1.70;76.60
4406;DHT22;2216;53.806;11.598;2023-03-07T02:19:28;1.60;76.30
4406;DHT22;2216;53.806;11.598;2023-03-07T02:22:08;1.60;76.00
4406;DHT22;2216;53.806;11.598;2023-03-07T02:27:23;1.70;76.40
4406;DHT22;2216;53.806;11.598;2023-03-07T02:29:49;1.60;76.50
4406;DHT22;2216;53.806;11.598;2023-03-07T02:32:15;1.70;76.50
4406;DHT22;2216;53.806;11.598;2023-03-07T02:34:41;1.60;76.90
4406;DHT22;2216;53.806;11.598;2023-03-07T02:37:11;1.60;76.70
4406;DHT22;2216;53.806;11.598;2023-03-07T02:39:41;1.70;76.50
4406;DHT22;2216;53.806;11.598;2023-03-07T02:42:13;1.60;76.70
4406;DHT22;2216;53.806;11.598;2023-03-07T02:44:44;1.70;76.60
4406;DHT22;2216;53.806;11.598;2023-03-07T02:47:10;1.70;77.00
4406;DHT22;2216;53.806;11.598;2023-03-07T02:49:36;1.70;77.40
4406;DHT22;2216;53.806;11.598;2023-03-07T02:52:02;1.70;77.70
4406;DHT22;2216;53.806;11.598;2023-03-07T02:54:28;1.70;77.10
4406;DHT22;2216;53.806;11.598;2023-03-07T02:56:53;1.70;77.00
4406;DHT22;2216;53.806;11.598;2023-03-07T02:59:19;1.70;77.10
4406;DHT22;2216;53.806;11.598;2023-03-07T03:01:45;1.70;77.80
4406;DHT22;2216;53.806;11.598;2023-03-07T03:04:11;1.70;77.50
4406;DHT22;2216;53.806;11.598;2023-03-07T03:06:36;1.70;77.70
4406;DHT22;2216;53.806;11.598;2023-03-07T03:09:02;1.70;78.00
4406;DHT22;2216;53.806;11.598;2023-03-07T03:11:28;1.70;77.60
4406;DHT22;2216;53.806;11.598;2023-03-07T03:13:54;1.70;77.90
4406;DHT22;2216;53.806;11.598;2023-03-07T03:16:19;1.70;77.60
4406;DHT22;2216;53.806;11.598;2023-03-07T03:18:45;1.80;77.70
4406;DHT22;2216;53.806;11.598;2023-03-07T03:21:11;1.80;77.50
4406;DHT22;2216;53.806;11.598;2023-03-07T03:23:37;1.80;77.50
4406;DHT22;2216;53.806;11.598;2023-03-07T03:26:06;1.80;77.60
4406;DHT22;2216;53.806;11.598;2023-03-07T03:28:34;1.80;77.50
4406;DHT22;2216;53.806;11.598;2023-03-07T03:31:02;1.80;78.30
4406;DHT22;2216;53.806;11.598;2023-03-07T03:33:30;1.80;77.90
4406;DHT22;2216;53.806;11.598;2023-03-07T03:36:04;1.80;78.00
4406;DHT22;2216;53.806;11.598;2023-03-07T03:38:33;1.80;78.20
4406;DHT22;2216;53.806;11.598;2023-03-07T03:41:02;1.80;77.50
4406;DHT22;2216;53.806;11.598;2023-03-07T03:43:29;1.80;77.90
4406;DHT22;2216;53.806;11.598;2023-03-07T03:45:56;1.80;77.80
4406;DHT22;2216;53.806;11.598;2023-03-07T03:48:22;1.90;77.90
4406;DHT22;2216;53.806;11.598;2023-03-07T03:50:48;1.90;78.00
4406;DHT22;2216;53.806;11.598;2023-03-07T03:53:14;1.90;77.80
4406;DHT22;2216;53.806;11.598;2023-03-07T03:55:40;1.90;77.60
4406;DHT22;2216;53.806;11.598;2023-03-07T03:58:05;1.90;77.20
4406;DHT22;2216;53.806;11.598;2023-03-07T04:00:31;1.90;77.40
4406;DHT22;2216;53.806;11.598;2023-03-07T04:03:00;2.10;77.40
4406;DHT22;2216;53.806;11.598;2023-03-07T04:05:25;1.90;77.60
4406;DHT22;2216;53.806;11.598;2023-03-07T04:07:51;1.90;77.60
4406;DHT22;2216;53.806;11.598;2023-03-07T04:10:16;1.90;77.50
4406;DHT22;2216;53.806;11.598;2023-03-07T04:12:43;2.00;77.80
4406;DHT22;2216;53.806;11.598;2023-03-07T04:15:10;1.90;77.80
4406;DHT22;2216;53.806;11.598;2023-03-07T04:17:36;2.00;78.00
4406;DHT22;2216;53.806;11.598;2023-03-07T04:20:02;2.00;77.60
4406;DHT22;2216;53.806;11.598;2023-03-07T04:22:29;2.00;77.70
4406;DHT22;2216;53.806;11.598;2023-03-07T04:24:54;2.00;77.60
4406;DHT22;2216;53.806;11.598;2023-03-07T04:27:20;2.00;77.50
4406;DHT22;2216;53.806;11.598;2023-03-07T04:29:46;2.00;77.50
4406;DHT22;2216;53.806;11.598;2023-03-07T04:32:11;2.10;77.70
4406;DHT22;2216;53.806;11.598;2023-03-07T04:34:37;2.10;77.60
4406;DHT22;2216;53.806;11.598;2023-03-07T04:37:03;2.10;77.60
4406;DHT22;2216;53.806;11.598;2023-03-07T04:39:28;2.10;77.70
4406;DHT22;2216;53.806;11.598;2023-03-07T04:41:54;2.10;77.40
4406;DHT22;2216;53.806;11.598;2023-03-07T04:44:20;2.10;77.70
4406;DHT22;2216;53.806;11.598;2023-03-07T04:46:45;2.10;77.30
4406;DHT22;2216;53.806;11.598;2023-03-07T04:49:11;2.10;77.40
4406;DHT22;2216;53.806;11.598;2023-03-07T04:51:36;2.20;77.30
4406;DHT22;2216;53.806;11.598;2023-03-07T04:54:02;2.10;77.20
4406;DHT22;2216;53.806;11.598;2023-03-07T04:56:28;2.20;77.20
4406;DHT22;2216;53.806;11.598;2023-03-07T04:58:54;2.20;77.20
4406;DHT22;2216;53.806;11.598;2023-03-07T05:01:19;2.20;77.60
4406;DHT22;2216;53.806;11.598;2023-03-07T05:03:45;2.20;78.00
4406;DHT22;2216;53.806;11.598;2023-03-07T05:06:13;2.20;77.30
4406;DHT22;2216;53.806;11.598;2023-03-07T05:08:40;2.20;77.30
4406;DHT22;2216;53.806;11.598;2023-03-07T05:11:06;2.20;77.10
4406;DHT22;2216;53.806;11.598;2023-03-07T05:13:31;2.20;77.10
4406;DHT22;2216;53.806;11.598;2023-03-07T05:15:57;2.20;77.10
4406;DHT22;2216;53.806;11.598;2023-03-07T05:18:25;2.30;77.20
4406;DHT22;2216;53.806;11.598;2023-03-07T05:20:51;2.30;77.30
4406;DHT22;2216;53.806;11.598;2023-03-07T05:23:17;2.30;77.10
4406;DHT22;2216;53.806;11.598;2023-03-07T05:25:44;2.40;77.30
4406;DHT22;2216;53.806;11.598;2023-03-07T05:28:11;2.40;77.10
4406;DHT22;2216;53.806;11.598;2023-03-07T05:30:37;2.40;77.20
4406;DHT22;2216;53.806;11.598;2023-03-07T05:33:03;2.40;77.20
4406;DHT22;2216;53.806;11.598;2023-03-07T05:35:29;2.40;77.20
4406;DHT22;2216;53.806;11.598;2023-03-07T05:37:54;2.40;77.20
4406;DHT22;2216;53.806;11.598;2023-03-07T05:40:20;2.40;77.30
4406;DHT22;2216;53.806;11.598;2023-03-07T05:42:46;2.40;77.10
4406;DHT22;2216;53.806;11.598;2023-03-07T05:45:11;2.40;77.10
4406;DHT22;2216;53.806;11.598;2023-03-07T05:47:37;2.50;77.00
4406;DHT22;2216;53.806;11.598;2023-03-07T05:50:04;2.50;77.00
4406;DHT22;2216;53.806;11.598;2023-03-07T05:52:30;2.50;77.20
4406;DHT22;2216;53.806;11.598;2023-03-07T05:54:56;2.50;77.30
4406;DHT22;2216;53.806;11.598;2023-03-07T05:57:22;2.50;77.30
4406;DHT22;2216;53.806;11.598;2023-03-07T05:59:48;2.50;77.20
4406;DHT22;2216;53.806;11.598;2023-03-07T06:02:14;2.50;77.20
4406;DHT22;2216;53.806;11.598;2023-03-07T06:04:39;2.70;77.20
4406;DHT22;2216;53.806;11.598;2023-03-07T06:07:05;2.70;77.40
4406;DHT22;2216;53.806;11.598;2023-03-07T06:09:31;2.60;77.30
4406;DHT22;2216;53.806;11.598;2023-03-07T06:11:56;2.60;77.20
4406;DHT22;2216;53.806;11.598;2023-03-07T06:14:22;2.60;77.20
4406;DHT22;2216;53.806;11.598;2023-03-07T06:16:48;2.60;77.30
4406;DHT22;2216;53.806;11.598;2023-03-07T06:19:14;2.60;77.30
4406;DHT22;2216;53.806;11.598;2023-03-07T06:21:41;2.60;77.30
4406;DHT22;2216;53.806;11.598;2023-03-07T06:24:07;2.60;77.40
4406;DHT22;2216;53.806;11.598;2023-03-07T06:26:34;2.60;77.40
4406;DHT22;2216;53.806;11.598;2023-03-07T06:29:00;2.70;77.70
4406;DHT22;2216;53.806;11.598;2023-03-07T06:31:25;2.70;77.60
4406;DHT22;2216;53.806;11.598;2023-03-07T06:33:51;2.70;77.60
4406;DHT22;2216;53.806;11.598;2023-03-07T06:36:18;2.70;77.50
4406;DHT22;2216;53.806;11.598;2023-03-07T06:38:45;2.70;77.50
4406;DHT22;2216;53.806;11.598;2023-03-07T06:41:11;2.70;77.60
4406;DHT22;2216;53.806;11.598;2023-03-07T06:43:37;2.80;77.60
4406;DHT22;2216;53.806;11.598;2023-03-07T06:46:03;2.80;77.60
4406;DHT22;2216;53.806;11.598;2023-03-07T06:48:29;2.80;78.10
4406;DHT22;2216;53.806;11.598;2023-03-07T06:50:55;2.90;78.40
4406;DHT22;2216;53.806;11.598;2023-03-07T06:53:20;2.80;77.80
4406;DHT22;2216;53.806;11.598;2023-03-07T06:55:50;2.90;78.10
4406;DHT22;2216;53.806;11.598;2023-03-07T06:58:17;2.90;77.90
4406;DHT22;2216;53.806;11.598;2023-03-07T07:00:43;2.90;77.80
4406;DHT22;2216;53.806;11.598;2023-03-07T07:03:15;3.00;77.80
4406;DHT22;2216;53.806;11.598;2023-03-07T07:05:42;3.20;78.00
4406;DHT22;2216;53.806;11.598;2023-03-07T07:08:08;3.10;77.70
4406;DHT22;2216;53.806;11.598;2023-03-07T07:10:34;3.00;78.20
4406;DHT22;2216;53.806;11.598;2023-03-07T07:12:59;3.10;77.90
4406;DHT22;2216;53.806;11.598;2023-03-07T07:15:25;3.10;77.90
4406;DHT22;2216;53.806;11.598;2023-03-07T07:17:51;3.10;78.00
4406;DHT22;2216;53.806;11.598;2023-03-07T07:20:17;3.20;77.90
4406;DHT22;2216;53.806;11.598;2023-03-07T07:22:43;3.20;77.90
4406;DHT22;2216;53.806;11.598;2023-03-07T07:25:09;3.30;77.90
4406;DHT22;2216;53.806;11.598;2023-03-07T07:27:35;3.30;78.00
4406;DHT22;2216;53.806;11.598;2023-03-07T07:30:04;3.30;78.40
4406;DHT22;2216;53.806;11.598;2023-03-07T07:32:31;3.30;77.80
4406;DHT22;2216;53.806;11.598;2023-03-07T07:34:56;3.40;78.00
4406;DHT22;2216;53.806;11.598;2023-03-07T07:37:22;3.40;77.80
4406;DHT22;2216;53.806;11.598;2023-03-07T07:39:49;3.40;77.80
4406;DHT22;2216;53.806;11.598;2023-03-07T07:42:15;3.40;77.90
4406;DHT22;2216;53.806;11.598;2023-03-07T07:44:41;3.40;77.70
4406;DHT22;2216;53.806;11.598;2023-03-07T07:47:07;3.50;77.80
4406;DHT22;2216;53.806;11.598;2023-03-07T07:49:33;3.50;77.60
4406;DHT22;2216;53.806;11.598;2023-03-07T07:51:59;3.50;77.60
4406;DHT22;2216;53.806;11.598;2023-03-07T07:54:25;3.50;77.50
4406;DHT22;2216;53.806;11.598;2023-03-07T07:56:51;3.60;77.60
4406;DHT22;2216;53.806;11.598;2023-03-07T07:59:17;3.60;77.60
4406;DHT22;2216;53.806;11.598;2023-03-07T08:01:42;3.70;78.10
4406;DHT22;2216;53.806;11.598;2023-03-07T08:04:08;3.70;77.90
4406;DHT22;2216;53.806;11.598;2023-03-07T08:06:34;3.80;78.00
4406;DHT22;2216;53.806;11.598;2023-03-07T08:09:00;3.90;78.10
4406;DHT22;2216;53.806;11.598;2023-03-07T08:11:25;3.90;78.00
4406;DHT22;2216;53.806;11.598;2023-03-07T08:13:51;4.00;77.90
4406;DHT22;2216;53.806;11.598;2023-03-07T08:16:19;4.00;77.80
4406;DHT22;2216;53.806;11.598;2023-03-07T08:18:48;4.10;77.80
4406;DHT22;2216;53.806;11.598;2023-03-07T08:21:15;4.10;77.80
4406;DHT22;2216;53.806;11.598;2023-03-07T08:23:41;4.20;77.80
4406;DHT22;2216;53.806;11.598;2023-03-07T08:26:08;4.30;78.00
4406;DHT22;2216;53.806;11.598;2023-03-07T08:28:38;4.40;78.10
4406;DHT22;2216;53.806;11.598;2023-03-07T08:31:15;4.40;78.20
4406;DHT22;2216;53.806;11.598;2023-03-07T08:33:46;4.60;78.50
4406;DHT22;2216;53.806;11.598;2023-03-07T08:36:12;4.60;78.20
4406;DHT22;2216;53.806;11.598;2023-03-07T08:38:38;4.80;78.00
4406;DHT22;2216;53.806;11.598;2023-03-07T08:41:05;4.70;77.70
4406;DHT22;2216;53.806;11.598;2023-03-07T08:43:34;4.80;77.50
4406;DHT22;2216;53.806;11.598;2023-03-07T08:46:01;4.80;77.30
4406;DHT22;2216;53.806;11.598;2023-03-07T08:48:27;4.80;77.20
4406;DHT22;2216;53.806;11.598;2023-03-07T08:50:53;4.90;77.20
4406;DHT22;2216;53.806;11.598;2023-03-07T08:53:19;4.80;77.00
4406;DHT22;2216;53.806;11.598;2023-03-07T08:55:45;4.90;76.90
4406;DHT22;2216;53.806;11.598;2023-03-07T08:58:12;4.90;77.10
4406;DHT22;2216;53.806;11.598;2023-03-07T09:00:38;5.10;77.20
4406;DHT22;2216;53.806;11.598;2023-03-07T09:03:05;5.00;77.00
4406;DHT22;2216;53.806;11.598;2023-03-07T09:05:31;5.00;77.00
4406;DHT22;2216;53.806;11.598;2023-03-07T09:07:57;5.00;76.90
4406;DHT22;2216;53.806;11.598;2023-03-07T09:10:24;5.10;76.90
4406;DHT22;2216;53.806;11.598;2023-03-07T09:12:51;5.00;76.70
4406;DHT22;2216;53.806;11.598;2023-03-07T09:15:20;5.10;76.80
4406;DHT22;2216;53.806;11.598;2023-03-07T09:17:47;5.10;76.70
4406;DHT22;2216;53.806;11.598;2023-03-07T09:20:13;5.20;76.60
4406;DHT22;2216;53.806;11.598;2023-03-07T09:22:42;5.00;76.40
4406;DHT22;2216;53.806;11.598;2023-03-07T09:25:09;4.90;76.10
4406;DHT22;2216;53.806;11.598;2023-03-07T09:27:34;4.90;75.90
4406;DHT22;2216;53.806;11.598;2023-03-07T09:30:00;4.80;75.80
4406;DHT22;2216;53.806;11.598;2023-03-07T09:32:26;4.60;75.90
4406;DHT22;2216;53.806;11.598;2023-03-07T09:34:52;4.70;76.10
4406;DHT22;2216;53.806;11.598;2023-03-07T09:37:18;4.60;76.20
4406;DHT22;2216;53.806;11.598;2023-03-07T09:39:44;4.60;76.50
4406;DHT22;2216;53.806;11.598;2023-03-07T09:42:19;4.60;76.60
4406;DHT22;2216;53.806;11.598;2023-03-07T09:50:54;4.80;77.20
4406;DHT22;2216;53.806;11.598;2023-03-07T09:53:36;4.80;77.20
4406;DHT22;2216;53.806;11.598;2023-03-07T09:56:10;4.90;77.30
4406;DHT22;2216;53.806;11.598;2023-03-07T09:58:43;4.90;77.20
4406;DHT22;2216;53.806;11.598;2023-03-07T10:01:11;5.00;77.10
4406;DHT22;2216;53.806;11.598;2023-03-07T10:03:45;5.00;76.70
4406;DHT22;2216;53.806;11.598;2023-03-07T10:06:40;4.90;76.40
4406;DHT22;2216;53.806;11.598;2023-03-07T10:09:14;4.90;76.20
4406;DHT22;2216;53.806;11.598;2023-03-07T10:12:08;4.90;76.60
4406;DHT22;2216;53.806;11.598;2023-03-07T10:15:04;4.70;76.10
4406;DHT22;2216;53.806;11.598;2023-03-07T10:26:40;4.60;76.70
4406;DHT22;2216;53.806;11.598;2023-03-07T10:29:53;4.70;76.90
4406;DHT22;2216;53.806;11.598;2023-03-07T10:43:05;4.80;76.80
4406;DHT22;2216;53.806;11.598;2023-03-07T10:45:31;4.70;76.70
4406;DHT22;2216;53.806;11.598;2023-03-07T10:48:07;4.70;76.70
4406;DHT22;2216;53.806;11.598;2023-03-07T10:51:11;4.80;76.80
4406;DHT22;2216;53.806;11.598;2023-03-07T10:54:04;4.80;77.00
4406;DHT22;2216;53.806;11.598;2023-03-07T10:56:36;4.80;77.20
4406;DHT22;2216;53.806;11.598;2023-03-07T10:59:07;4.90;77.40
4406;DHT22;2216;53.806;11.598;2023-03-07T11:01:35;5.00;77.60
4406;DHT22;2216;53.806;11.598;2023-03-07T11:04:04;5.20;77.70
4406;DHT22;2216;53.806;11.598;2023-03-07T11:06:40;5.20;77.70
4406;DHT22;2216;53.806;11.598;2023-03-07T11:09:13;5.20;77.50
4406;DHT22;2216;53.806;11.598;2023-03-07T11:14:49;5.30;77.30
4406;DHT22;2216;53.806;11.598;2023-03-07T11:17:19;5.30;76.90
4406;DHT22;2216;53.806;11.598;2023-03-07T11:19:50;5.40;76.80
4406;DHT22;2216;53.806;11.598;2023-03-07T11:22:32;5.40;76.70
4406;DHT22;2216;53.806;11.598;2023-03-07T11:30:21;5.50;77.80
4406;DHT22;2216;53.806;11.598;2023-03-07T11:35:41;5.90;78.40
4406;DHT22;2216;53.806;11.598;2023-03-07T11:38:25;6.00;78.20
4406;DHT22;2216;53.806;11.598;2023-03-07T11:41:03;6.30;78.30
4406;DHT22;2216;53.806;11.598;2023-03-07T11:43:45;6.30;77.70
4406;DHT22;2216;53.806;11.598;2023-03-07T11:46:41;6.30;77.20
4406;DHT22;2216;53.806;11.598;2023-03-07T11:49:25;6.30;76.90
4406;DHT22;2216;53.806;11.598;2023-03-07T11:55:24;6.40;77.00
4406;DHT22;2216;53.806;11.598;2023-03-07T11:58:18;6.50;77.30
4406;DHT22;2216;53.806;11.598;2023-03-07T12:07:46;6.70;77.50
4406;DHT22;2216;53.806;11.598;2023-03-07T12:10:37;6.90;77.70
4406;DHT22;2216;53.806;11.598;2023-03-07T12:13:18;6.90;77.50
4406;DHT22;2216;53.806;11.598;2023-03-07T12:18:49;7.20;77.80
4406;DHT22;2216;53.806;11.598;2023-03-07T12:24:04;7.30;77.40
4406;DHT22;2216;53.806;11.598;2023-03-07T12:26:49;7.40;77.10
4406;DHT22;2216;53.806;11.598;2023-03-07T12:29:56;7.40;76.80
4406;DHT22;2216;53.806;11.598;2023-03-07T12:32:25;7.40;76.70
4406;DHT22;2216;53.806;11.598;2023-03-07T12:35:59;7.30;76.40
4406;DHT22;2216;53.806;11.598;2023-03-07T12:38:36;7.40;76.40
4406;DHT22;2216;53.806;11.598;2023-03-07T12:41:30;7.30;76.60
4406;DHT22;2216;53.806;11.598;2023-03-07T12:44:49;7.30;76.50
4406;DHT22;2216;53.806;11.598;2023-03-07T12:47:29;7.40;76.30
4406;DHT22;2216;53.806;11.598;2023-03-07T12:50:21;7.30;76.10
4406;DHT22;2216;53.806;11.598;2023-03-07T12:52:55;7.40;76.60
4406;DHT22;2216;53.806;11.598;2023-03-07T12:55:26;7.40;76.80
4406;DHT22;2216;53.806;11.598;2023-03-07T12:58:16;7.50;76.40
4406;DHT22;2216;53.806;11.598;2023-03-07T13:01:18;7.60;76.10
4406;DHT22;2216;53.806;11.598;2023-03-07T13:04:11;7.70;75.80
4406;DHT22;2216;53.806;11.598;2023-03-07T13:06:47;7.80;74.80
4406;DHT22;2216;53.806;11.598;2023-03-07T13:09:24;7.80;75.50
4406;DHT22;2216;53.806;11.598;2023-03-07T13:14:53;7.90;75.20
4406;DHT22;2216;53.806;11.598;2023-03-07T13:27:51;7.90;74.30
4406;DHT22;2216;53.806;11.598;2023-03-07T13:33:02;7.90;72.20
4406;DHT22;2216;53.806;11.598;2023-03-07T13:41:11;7.80;72.70
4406;DHT22;2216;53.806;11.598;2023-03-07T13:51:19;7.70;72.50
4406;DHT22;2216;53.806;11.598;2023-03-07T13:54:01;7.60;70.70
4406;DHT22;2216;53.806;11.598;2023-03-07T13:56:34;7.50;71.20
4406;DHT22;2216;53.806;11.598;2023-03-07T14:04:21;7.10;70.30
4406;DHT22;2216;53.806;11.598;2023-03-07T14:06:55;7.00;70.60
4406;DHT22;2216;53.806;11.598;2023-03-07T14:09:45;6.80;70.50
4406;DHT22;2216;53.806;11.598;2023-03-07T14:24:23;6.80;71.00
4406;DHT22;2216;53.806;11.598;2023-03-07T14:27:03;6.80;69.90
4406;DHT22;2216;53.806;11.598;2023-03-07T14:29:30;6.90;72.30
4406;DHT22;2216;53.806;11.598;2023-03-07T14:31:57;6.90;72.30
4406;DHT22;2216;53.806;11.598;2023-03-07T14:34:31;7.00;72.80
4406;DHT22;2216;53.806;11.598;2023-03-07T14:37:06;6.90;72.70
4406;DHT22;2216;53.806;11.598;2023-03-07T14:42:50;7.00;72.60
4406;DHT22;2216;53.806;11.598;2023-03-07T14:45:32;7.00;71.20
4406;DHT22;2216;53.806;11.598;2023-03-07T14:51:23;6.90;70.90
4406;DHT22;2216;53.806;11.598;2023-03-07T14:53:51;6.90;71.50
4406;DHT22;2216;53.806;11.598;2023-03-07T14:56:22;7.00;71.10
4406;DHT22;2216;53.806;11.598;2023-03-07T14:58:53;6.80;70.60
4406;DHT22;2216;53.806;11.598;2023-03-07T15:01:21;6.70;71.30
4406;DHT22;2216;53.806;11.598;2023-03-07T15:03:49;6.60;69.80
4406;DHT22;2216;53.806;11.598;2023-03-07T15:06:19;6.50;69.00
4406;DHT22;2216;53.806;11.598;2023-03-07T15:08:47;6.40;68.80
4406;DHT22;2216;53.806;11.598;2023-03-07T15:11:33;6.30;70.20
4406;DHT22;2216;53.806;11.598;2023-03-07T15:16:41;6.10;70.60
4406;DHT22;2216;53.806;11.598;2023-03-07T15:21:59;5.90;70.10
4406;DHT22;2216;53.806;11.598;2023-03-07T15:24:31;5.90;70.30
4406;DHT22;2216;53.806;11.598;2023-03-07T15:26:59;5.80;70.60
4406;DHT22;2216;53.806;11.598;2023-03-07T15:29:27;5.70;69.80
4406;DHT22;2216;53.806;11.598;2023-03-07T15:32:03;5.70;70.80
4406;DHT22;2216;53.806;11.598;2023-03-07T15:34:36;5.70;71.10
4406;DHT22;2216;53.806;11.598;2023-03-07T15:37:25;5.80;71.20
4406;DHT22;2216;53.806;11.598;2023-03-07T15:42:25;5.70;71.70
4406;DHT22;2216;53.806;11.598;2023-03-07T15:44:56;5.70;71.90
4406;DHT22;2216;53.806;11.598;2023-03-07T15:47:24;5.70;71.50
4406;DHT22;2216;53.806;11.598;2023-03-07T15:49:56;5.70;71.30
4406;DHT22;2216;53.806;11.598;2023-03-07T15:52:35;5.70;71.00
4406;DHT22;2216;53.806;11.598;2023-03-07T15:55:17;5.70;70.00
4406;DHT22;2216;53.806;11.598;2023-03-07T16:00:32;5.60;70.30
4406;DHT22;2216;53.806;11.598;2023-03-07T16:03:28;5.50;70.40
4406;DHT22;2216;53.806;11.598;2023-03-07T16:05:57;5.50;69.60
4406;DHT22;2216;53.806;11.598;2023-03-07T16:08:23;5.40;70.20
4406;DHT22;2216;53.806;11.598;2023-03-07T16:13:19;5.30;70.30
4406;DHT22;2216;53.806;11.598;2023-03-07T16:15:57;5.30;70.50
4406;DHT22;2216;53.806;11.598;2023-03-07T16:18:26;5.30;70.80
4406;DHT22;2216;53.806;11.598;2023-03-07T16:20:53;5.20;71.00
4406;DHT22;2216;53.806;11.598;2023-03-07T16:23:18;5.10;71.10
4406;DHT22;2216;53.806;11.598;2023-03-07T16:25:44;5.10;71.10
4406;DHT22;2216;53.806;11.598;2023-03-07T16:28:11;5.10;70.20
4406;DHT22;2216;53.806;11.598;2023-03-07T16:30:37;5.10;70.20
4406;DHT22;2216;53.806;11.598;2023-03-07T16:33:10;4.90;70.40
4406;DHT22;2216;53.806;11.598;2023-03-07T16:35:37;4.90;70.80
4406;DHT22;2216;53.806;11.598;2023-03-07T16:38:03;4.90;70.40
4406;DHT22;2216;53.806;11.598;2023-03-07T16:40:30;4.90;70.90
4406;DHT22;2216;53.806;11.598;2023-03-07T16:42:56;4.80;71.00
4406;DHT22;2216;53.806;11.598;2023-03-07T16:45:25;4.80;70.90
4406;DHT22;2216;53.806;11.598;2023-03-07T16:47:57;4.90;69.90
4406;DHT22;2216;53.806;11.598;2023-03-07T16:50:29;4.70;70.80
4406;DHT22;2216;53.806;11.598;2023-03-07T16:52:56;4.70;71.10
4406;DHT22;2216;53.806;11.598;2023-03-07T16:55:22;4.60;70.90
4406;DHT22;2216;53.806;11.598;2023-03-07T16:57:51;4.60;71.00
4406;DHT22;2216;53.806;11.598;2023-03-07T17:00:21;4.50;71.00
4406;DHT22;2216;53.806;11.598;2023-03-07T17:02:50;4.50;71.00
4406;DHT22;2216;53.806;11.598;2023-03-07T17:05:23;4.40;70.80
4406;DHT22;2216;53.806;11.598;2023-03-07T17:07:51;4.30;70.50
4406;DHT22;2216;53.806;11.598;2023-03-07T17:10:17;4.30;70.80
4406;DHT22;2216;53.806;11.598;2023-03-07T17:12:43;4.20;70.70
4406;DHT22;2216;53.806;11.598;2023-03-07T17:15:15;4.10;70.50
4406;DHT22;2216;53.806;11.598;2023-03-07T17:17:44;4.10;70.70
4406;DHT22;2216;53.806;11.598;2023-03-07T17:20:16;4.00;70.80
4406;DHT22;2216;53.806;11.598;2023-03-07T17:22:44;3.90;70.80
4406;DHT22;2216;53.806;11.598;2023-03-07T17:25:10;3.90;70.20
4406;DHT22;2216;53.806;11.598;2023-03-07T17:27:42;3.80;70.80
4406;DHT22;2216;53.806;11.598;2023-03-07T17:30:19;3.80;70.70
4406;DHT22;2216;53.806;11.598;2023-03-07T17:32:46;3.80;71.00
4406;DHT22;2216;53.806;11.598;2023-03-07T17:35:12;3.70;71.00
4406;DHT22;2216;53.806;11.598;2023-03-07T17:37:40;3.70;70.90
4406;DHT22;2216;53.806;11.598;2023-03-07T17:40:06;3.60;70.70
4406;DHT22;2216;53.806;11.598;2023-03-07T17:42:35;3.50;70.80
4406;DHT22;2216;53.806;11.598;2023-03-07T17:45:03;3.70;71.10
4406;DHT22;2216;53.806;11.598;2023-03-07T17:47:30;3.50;71.00
4406;DHT22;2216;53.806;11.598;2023-03-07T17:49:56;3.40;71.10
4406;DHT22;2216;53.806;11.598;2023-03-07T17:52:22;3.40;71.10
4406;DHT22;2216;53.806;11.598;2023-03-07T17:54:48;3.30;71.00
4406;DHT22;2216;53.806;11.598;2023-03-07T17:57:14;3.30;71.10
4406;DHT22;2216;53.806;11.598;2023-03-07T17:59:40;3.20;71.00
4406;DHT22;2216;53.806;11.598;2023-03-07T18:02:08;3.20;71.00
4406;DHT22;2216;53.806;11.598;2023-03-07T18:04:35;3.30;70.80
4406;DHT22;2216;53.806;11.598;2023-03-07T18:07:01;3.30;71.00
4406;DHT22;2216;53.806;11.598;2023-03-07T18:09:26;3.10;70.80
4406;DHT22;2216;53.806;11.598;2023-03-07T18:11:52;3.10;70.90
4406;DHT22;2216;53.806;11.598;2023-03-07T18:14:18;3.00;70.70
4406;DHT22;2216;53.806;11.598;2023-03-07T18:16:44;2.90;71.00
4406;DHT22;2216;53.806;11.598;2023-03-07T18:19:11;2.90;71.00
4406;DHT22;2216;53.806;11.598;2023-03-07T18:21:37;2.90;71.10